Orchard, TX (77464)

2:07 PM CDT on May 05, 2015 (GMT -0500)
Weston Lakes | | Change Station
CLOSE
Current Station
Personal Weather Station
Location: Fulshear, TX
Elevation: 108 ft
Nearby Weather Stations

Elev 108 ft 29.65 °N, 95.93 °W | Updated 11 minutes ago

Mostly Cloudy
Mostly Cloudy
83.5 °F
Feels Like 100 °F
N
7.8
Wind Variable Wind from NNE

Today
High -- | Low -- °F
--% Chance of Precip.
Yesterday
High -- | Low -- °F
Precip. -- in
6:38 AM 8:03 PM
Full, 97% visible
Pressure 30.01 in
Visibility 10.0 miles
Clouds Mostly Cloudy 3300 ft
Mostly Cloudy 3900 ft
Mostly Cloudy 5000 ft
Heat Index 100 °F
Dew Point 83 °F
Humidity 98%
Rainfall 0.00 in
Snow Depth Not available.
UV 6 out of 12
Pollen 6.50 out of 12
Air Quality Not available.
Flu Activity Sporadic
METAR KTME 051835Z AUTO 15014G23KT 10SM BKN033 BKN039 BKN050 28/20 A3001 RMK AO2

More Conditions Fewer Conditions

Pressure 30.01 in
Visibility 10.0 miles
Clouds Mostly Cloudy 3300 ft
Mostly Cloudy 3900 ft
Mostly Cloudy 5000 ft
Heat Index 100 °F
Dew Point 83 °F
Humidity 98%
Rainfall 0.00 in
Snow Depth Not available.
UV 6 out of 12
Pollen 6.50 out of 12
Air Quality Not available.
Flu Activity Sporadic
METAR KTME 051835Z AUTO 15014G23KT 10SM BKN033 BKN039 BKN050 28/20 A3001 RMK AO2

More Conditions Fewer Conditions

10-Day Weather Forecast

Almanac

Astronomy

May. 05, 2015 Rise Set
Actual Time
Civil Twilight
Nautical Twilight
Astronomical Twilight
Moon
Length of Visible Light
Length of Day
Tomorrow will be .
, % of the Moon is Illuminated

Today's Extremes

State Highs State Lows

Community

WunderPhotos

Upload Photos

1,818,956 photos uploaded!

WunderBlogs® & News

Nearby

Air Quality

  Air Quality AQ Index Pollutant
Not available.

Snow Depth

Station Depth Elevation

Earthquake Activity

City Distance Mag. Time & Date
Minimum magnitude displayed is 2.5.

Coastal Water Temperatures

Place Temperature

Stations

Nearby Weather Stations

Station Location Temp. Windchill Dew Point Humidity Wind Precip. Elev Updated Type